Time;durP1;ratioP1;P1;durP2;ratioP2;P2;SDS_P1;SDS_P2;PMS_P1;PMS_P2;Temp;Humidity;BMP_temperature;BMP_pressure;BME280_temperature;BME280_humidity;BME280_pressure;Samples;Min_cycle;Max_cycle;Signal;HPM_P1;HPM_P2
2023/11/10 00:00:51;;;;;;;1.90;1.77;;;7.70;99.90;;;;;;5031812;28;20201;-70
2023/11/10 00:03:17;;;;;;;2.77;1.90;;;7.70;99.90;;;;;;5031487;28;20441;-69
2023/11/10 00:05:42;;;;;;;2.77;2.50;;;7.70;99.90;;;;;;5031800;28;20241;-69
2023/11/10 00:08:12;;;;;;;3.23;2.30;;;7.70;99.90;;;;;;5031862;28;20247;-69
2023/11/10 00:10:37;;;;;;;2.13;1.70;;;7.70;99.90;;;;;;5031815;28;20197;-68
2023/11/10 00:13:03;;;;;;;2.60;2.40;;;7.70;99.90;;;;;;5031302;28;21116;-68
2023/11/10 00:15:29;;;;;;;5.23;2.53;;;7.70;99.90;;;;;;5031688;28;20651;-68
2023/11/10 00:17:56;;;;;;;3.63;2.23;;;7.60;99.90;;;;;;5031697;28;20429;-69
2023/11/10 00:20:22;;;;;;;2.57;2.27;;;7.70;99.90;;;;;;5031622;28;20202;-69
2023/11/10 00:22:48;;;;;;;2.20;1.93;;;7.70;99.90;;;;;;5031296;28;20972;-69
2023/11/10 00:25:13;;;;;;;2.50;1.60;;;7.60;99.90;;;;;;5031639;28;20658;-69
2023/11/10 00:27:39;;;;;;;1.63;1.53;;;7.60;99.90;;;;;;5030631;28;20182;-70
2023/11/10 00:30:05;;;;;;;3.23;1.97;;;7.60;99.90;;;;;;5031574;28;20198;-69
2023/11/10 00:32:33;;;;;;;2.17;1.70;;;7.60;99.90;;;;;;5031393;28;20198;-69
2023/11/10 00:34:58;;;;;;;3.23;2.90;;;7.60;99.90;;;;;;5031270;28;20416;-69
2023/11/10 00:37:23;;;;;;;2.60;2.00;;;7.50;99.90;;;;;;5032816;28;20427;-69
2023/11/10 00:39:49;;;;;;;2.20;1.60;;;7.50;99.90;;;;;;5035182;28;20577;-69
2023/11/10 00:42:15;;;;;;;2.40;1.93;;;7.40;99.90;;;;;;5035291;28;20679;-69
2023/11/10 00:44:40;;;;;;;1.90;1.77;;;7.30;99.90;;;;;;5034813;28;20244;-69
2023/11/10 00:47:06;;;;;;;2.23;1.27;;;7.30;99.90;;;;;;5035219;28;20785;-69
2023/11/10 00:49:31;;;;;;;1.77;1.47;;;7.30;99.90;;;;;;5035175;28;20163;-69
2023/11/10 00:51:57;;;;;;;1.20;1.10;;;7.30;99.90;;;;;;5035069;28;20174;-69
2023/11/10 00:54:22;;;;;;;1.57;1.47;;;7.20;99.90;;;;;;5034771;28;20251;-69
2023/11/10 00:56:48;;;;;;;2.20;1.03;;;7.20;99.90;;;;;;5035038;28;20178;-69
2023/11/10 00:59:13;;;;;;;1.10;1.10;;;7.10;99.90;;;;;;5034901;28;20174;-69
2023/11/10 01:01:39;;;;;;;1.17;1.07;;;7.10;99.90;;;;;;5034895;28;20773;-69
2023/11/10 01:04:07;;;;;;;2.03;1.50;;;7.10;99.90;;;;;;5034604;28;20285;-69
2023/11/10 01:06:33;;;;;;;1.93;1.57;;;7.10;99.90;;;;;;5034834;28;20246;-69
2023/11/10 01:08:59;;;;;;;2.73;1.30;;;7.10;99.90;;;;;;5034771;28;20831;-69
2023/11/10 01:11:27;;;;;;;2.17;1.60;;;7.10;99.90;;;;;;5034738;28;20421;-69
2023/11/10 01:13:53;;;;;;;1.33;1.10;;;7.10;99.90;;;;;;5034213;28;20212;-69
2023/11/10 01:16:19;;;;;;;3.23;1.47;;;7.00;99.90;;;;;;5034621;28;20417;-69
2023/11/10 01:18:44;;;;;;;1.73;1.57;;;7.00;99.90;;;;;;5034555;28;20166;-69
2023/11/10 01:21:10;;;;;;;1.50;1.40;;;6.90;99.90;;;;;;5034469;28;20821;-69
2023/11/10 01:23:36;;;;;;;1.57;1.47;;;7.00;99.90;;;;;;5034213;28;20186;-69
2023/11/10 01:26:02;;;;;;;3.47;1.30;;;6.90;99.90;;;;;;5034500;28;20689;-69
2023/11/10 01:28:28;;;;;;;1.13;1.03;;;6.90;99.90;;;;;;5034328;28;20189;-69
2023/11/10 01:30:53;;;;;;;1.10;0.93;;;6.90;99.90;;;;;;5034389;28;20907;-69
2023/11/10 01:33:19;;;;;;;1.33;0.93;;;6.90;99.90;;;;;;5034094;28;20620;-69
2023/11/10 01:35:45;;;;;;;1.07;0.97;;;6.90;99.90;;;;;;5034251;28;20719;-69
2023/11/10 01:38:11;;;;;;;1.30;1.20;;;6.90;99.90;;;;;;5034224;28;20167;-69
2023/11/10 01:40:39;;;;;;;1.23;1.00;;;6.90;99.90;;;;;;5034118;28;20202;-69
2023/11/10 01:43:13;;;;;;;1.57;1.30;;;6.90;99.90;;;;;;5033686;28;20682;-69
2023/11/10 01:45:39;;;;;;;1.03;0.93;;;6.90;99.90;;;;;;5034146;28;20420;-69
2023/11/10 01:48:08;;;;;;;1.37;1.23;;;6.90;99.90;;;;;;5033473;28;20421;-69
2023/11/10 01:50:34;;;;;;;1.80;1.70;;;6.90;99.90;;;;;;5033445;28;20178;-69
2023/11/10 01:53:02;;;;;;;1.33;0.90;;;7.00;99.90;;;;;;5033640;28;20447;-69
2023/11/10 01:55:28;;;;;;;2.07;1.10;;;7.00;99.90;;;;;;5033728;28;20433;-69
2023/11/10 01:57:54;;;;;;;1.90;1.30;;;6.90;99.90;;;;;;5033829;28;20426;-69
2023/11/10 02:00:20;;;;;;;2.60;1.40;;;7.00;99.90;;;;;;5033887;28;20456;-69
2023/11/10 02:02:47;;;;;;;1.17;1.07;;;7.00;99.90;;;;;;5033453;28;20412;-69
2023/11/10 02:05:12;;;;;;;1.70;1.20;;;7.00;99.90;;;;;;5033748;28;20413;-69
2023/11/10 02:07:38;;;;;;;1.30;1.20;;;7.10;99.90;;;;;;5033580;28;20471;-70
2023/11/10 02:10:04;;;;;;;1.63;0.90;;;7.10;99.90;;;;;;5033601;28;20224;-69
2023/11/10 02:12:30;;;;;;;1.00;1.00;;;7.10;99.90;;;;;;5033467;28;20260;-69
2023/11/10 02:14:55;;;;;;;4.93;1.37;;;7.10;99.90;;;;;;5033315;28;20512;-70
2023/11/10 02:17:21;;;;;;;1.43;1.33;;;7.10;99.90;;;;;;5033570;28;20202;-69
2023/11/10 02:19:46;;;;;;;1.57;1.47;;;7.10;99.90;;;;;;5033397;28;20178;-69
2023/11/10 02:22:12;;;;;;;1.53;1.10;;;7.10;99.90;;;;;;5033433;28;20636;-69
2023/11/10 02:24:41;;;;;;;1.60;1.47;;;7.10;99.90;;;;;;5032954;28;20277;-70
2023/11/10 02:27:07;;;;;;;1.07;0.97;;;7.10;99.90;;;;;;5033271;28;20170;-69
2023/11/10 02:29:39;;;;;;;1.70;1.60;;;7.20;99.90;;;;;;5033254;28;20424;-69
2023/11/10 02:32:05;;;;;;;2.20;1.60;;;7.10;99.90;;;;;;5033277;28;20540;-69
2023/11/10 02:34:30;;;;;;;1.97;1.30;;;7.20;99.90;;;;;;5032863;28;20447;-69
2023/11/10 02:36:57;;;;;;;1.87;1.77;;;7.20;99.90;;;;;;5033038;28;20954;-69
2023/11/10 02:39:23;;;;;;;2.20;1.70;;;7.20;99.90;;;;;;5032980;28;20188;-70
2023/11/10 02:41:52;;;;;;;2.67;2.27;;;7.20;99.90;;;;;;5032973;28;21048;-70
2023/11/10 02:44:18;;;;;;;1.60;1.50;;;7.20;99.90;;;;;;5032641;28;20197;-69
2023/11/10 02:46:43;;;;;;;4.30;2.20;;;7.20;99.90;;;;;;5032905;28;20424;-69
2023/11/10 02:49:09;;;;;;;1.70;1.60;;;7.20;99.90;;;;;;5032864;28;20914;-69
2023/11/10 02:51:34;;;;;;;1.83;1.73;;;7.20;99.90;;;;;;5032847;28;20636;-69
2023/11/10 02:54:00;;;;;;;1.70;1.60;;;7.20;99.90;;;;;;5032350;28;20240;-69
2023/11/10 02:56:25;;;;;;;1.83;1.73;;;7.20;99.90;;;;;;5032727;28;20170;-70
2023/11/10 02:58:51;;;;;;;3.27;1.60;;;7.20;99.90;;;;;;5032747;28;20257;-69
2023/11/10 03:01:23;;;;;;;6.17;1.63;;;7.20;99.90;;;;;;5032182;28;20197;-70
2023/11/10 03:03:50;;;;;;;1.57;1.47;;;7.20;99.90;;;;;;5032265;28;20182;-70
2023/11/10 03:06:15;;;;;;;4.20;1.70;;;7.20;99.90;;;;;;5032547;28;20789;-70
2023/11/10 03:08:41;;;;;;;1.30;1.20;;;7.10;99.90;;;;;;5032591;28;20425;-69
2023/11/10 03:11:06;;;;;;;1.30;1.20;;;7.10;99.90;;;;;;5032555;28;20211;-69
2023/11/10 03:13:32;;;;;;;1.47;1.37;;;7.00;99.90;;;;;;5032025;28;20304;-70
2023/11/10 03:15:57;;;;;;;2.10;1.30;;;7.00;99.90;;;;;;5032495;28;20171;-69
2023/11/10 03:18:23;;;;;;;1.87;1.20;;;6.90;99.90;;;;;;5032452;28;20612;-70
2023/11/10 03:20:49;;;;;;;1.03;0.90;;;7.00;99.90;;;;;;5032268;28;20281;-70
2023/11/10 03:23:15;;;;;;;1.83;0.97;;;6.90;99.90;;;;;;5031943;28;20186;-70
2023/11/10 03:25:40;;;;;;;0.90;0.80;;;6.90;99.90;;;;;;5032340;28;20631;-69
2023/11/10 03:28:06;;;;;;;0.90;0.90;;;6.90;99.90;;;;;;5032307;28;20179;-69
2023/11/10 03:30:31;;;;;;;1.00;0.90;;;6.90;99.90;;;;;;5032192;28;20524;-69
2023/11/10 03:32:57;;;;;;;0.80;0.70;;;6.90;99.90;;;;;;5031881;28;20202;-69
2023/11/10 03:35:22;;;;;;;0.93;0.83;;;7.00;99.90;;;;;;5032285;28;20216;-69
2023/11/10 03:37:48;;;;;;;0.70;0.57;;;6.90;99.90;;;;;;5032203;28;20220;-69
2023/11/10 03:40:14;;;;;;;0.70;0.70;;;6.90;99.90;;;;;;5032114;28;20267;-69
2023/11/10 03:42:39;;;;;;;0.60;0.60;;;7.00;99.90;;;;;;5031787;28;20166;-69
2023/11/10 03:45:05;;;;;;;1.17;0.80;;;6.90;99.90;;;;;;5032061;28;20166;-70
2023/11/10 03:47:32;;;;;;;0.87;0.60;;;6.90;99.90;;;;;;5032070;28;20162;-69
2023/11/10 03:49:57;;;;;;;0.90;0.60;;;7.00;99.90;;;;;;5031989;28;20452;-69
2023/11/10 03:52:23;;;;;;;1.00;0.70;;;7.00;99.90;;;;;;5031816;28;20428;-70
2023/11/10 03:54:48;;;;;;;0.60;0.50;;;6.90;99.90;;;;;;5031572;28;20217;-69
2023/11/10 03:57:14;;;;;;;1.17;0.60;;;6.90;99.90;;;;;;5031983;28;20249;-69
2023/11/10 03:59:40;;;;;;;0.70;0.50;;;7.00;99.90;;;;;;5031895;28;20564;-69
2023/11/10 04:02:06;;;;;;;0.70;0.70;;;7.00;99.90;;;;;;5031906;28;20424;-70
2023/11/10 04:04:32;;;;;;;1.03;0.73;;;7.00;99.90;;;;;;5031563;28;20194;-69
2023/11/10 04:06:57;;;;;;;0.60;0.60;;;7.00;99.90;;;;;;5031707;28;20918;-69
2023/11/10 04:09:24;;;;;;;1.23;0.70;;;7.00;99.90;;;;;;5031855;28;20541;-69
2023/11/10 04:11:49;;;;;;;0.50;0.50;;;7.00;99.90;;;;;;5032207;28;20635;-70
2023/11/10 04:14:15;;;;;;;3.30;0.83;;;7.00;99.90;;;;;;5035380;28;20495;-69
2023/11/10 04:16:41;;;;;;;1.10;0.60;;;7.00;99.90;;;;;;5035816;28;20181;-70
2023/11/10 04:19:07;;;;;;;2.20;0.70;;;7.00;99.90;;;;;;5035694;28;20555;-69
2023/11/10 04:21:33;;;;;;;3.03;0.80;;;7.00;99.90;;;;;;5035491;28;20198;-70
2023/11/10 04:23:58;;;;;;;1.00;0.73;;;7.00;99.90;;;;;;5035291;28;20438;-70
2023/11/10 04:26:24;;;;;;;0.80;0.70;;;7.00;99.90;;;;;;5035684;28;20205;-70
2023/11/10 04:28:50;;;;;;;0.93;0.60;;;7.00;99.90;;;;;;5035540;28;20683;-70
2023/11/10 04:31:16;;;;;;;1.63;0.70;;;7.00;99.90;;;;;;5035519;28;20253;-69
2023/11/10 04:33:45;;;;;;;2.20;0.90;;;7.00;99.90;;;;;;5035121;28;20194;-69
2023/11/10 04:36:12;;;;;;;0.50;0.50;;;7.00;99.90;;;;;;5035437;28;20423;-69
2023/11/10 04:38:39;;;;;;;0.70;0.70;;;7.00;99.90;;;;;;5035405;28;20867;-69
2023/11/10 04:41:05;;;;;;;1.37;1.00;;;6.90;99.90;;;;;;5035246;28;20832;-69
2023/11/10 04:43:30;;;;;;;1.53;0.60;;;7.00;99.90;;;;;;5034929;28;20494;-69
2023/11/10 04:45:56;;;;;;;1.17;0.57;;;6.90;99.90;;;;;;5035183;28;20178;-69
2023/11/10 04:48:22;;;;;;;0.60;0.50;;;6.90;99.90;;;;;;5035185;28;20246;-69
2023/11/10 04:50:47;;;;;;;0.97;0.60;;;6.90;99.90;;;;;;5035085;28;20666;-69
2023/11/10 04:53:13;;;;;;;0.53;0.47;;;6.90;99.90;;;;;;5034974;28;20205;-69
2023/11/10 04:55:39;;;;;;;0.50;0.50;;;6.90;99.90;;;;;;5035103;28;20210;-69
2023/11/10 04:58:05;;;;;;;0.50;0.40;;;6.90;99.90;;;;;;5035078;28;20277;-69
2023/11/10 05:00:30;;;;;;;0.77;0.60;;;6.90;99.90;;;;;;5034879;28;20964;-69
2023/11/10 05:02:59;;;;;;;0.50;0.50;;;6.80;99.90;;;;;;5034609;28;20178;-69
2023/11/10 05:05:25;;;;;;;0.50;0.50;;;6.80;99.90;;;;;;5034808;28;20708;-69
2023/11/10 05:07:51;;;;;;;0.50;0.40;;;6.90;99.90;;;;;;5034857;28;20492;-69
2023/11/10 05:10:16;;;;;;;0.60;0.50;;;6.90;99.90;;;;;;5034808;28;20181;-69
2023/11/10 05:12:42;;;;;;;0.57;0.40;;;6.80;99.90;;;;;;5034311;28;20228;-69
2023/11/10 05:15:08;;;;;;;0.90;0.50;;;6.90;99.90;;;;;;5035127;28;20236;-69
2023/11/10 05:17:35;;;;;;;1.10;0.50;;;6.90;99.90;;;;;;5034557;28;20545;-69
2023/11/10 05:20:01;;;;;;;0.50;0.50;;;6.90;99.90;;;;;;5034472;28;20465;-69
2023/11/10 05:22:29;;;;;;;0.50;0.40;;;6.90;99.90;;;;;;5034390;28;20451;-69
2023/11/10 05:24:55;;;;;;;0.90;0.63;;;6.90;99.90;;;;;;5034100;28;20170;-69
2023/11/10 05:27:21;;;;;;;1.43;0.40;;;6.90;99.90;;;;;;5034563;28;20466;-69
2023/11/10 05:29:46;;;;;;;2.37;0.70;;;6.90;99.90;;;;;;5034454;28;20812;-69
2023/11/10 05:32:12;;;;;;;0.50;0.50;;;6.80;99.90;;;;;;5034353;28;20170;-69
2023/11/10 05:34:37;;;;;;;0.63;0.60;;;6.80;99.90;;;;;;5033930;28;20190;-69
2023/11/10 05:37:04;;;;;;;0.50;0.40;;;6.70;99.90;;;;;;5034317;28;20166;-69
2023/11/10 05:39:30;;;;;;;0.50;0.50;;;6.80;99.90;;;;;;5034280;28;20167;-69
2023/11/10 05:41:56;;;;;;;0.70;0.50;;;6.70;99.90;;;;;;5034080;28;20822;-69
2023/11/10 05:44:23;;;;;;;1.60;0.50;;;6.70;99.90;;;;;;5033842;28;20523;-69
2023/11/10 05:46:49;;;;;;;0.50;0.50;;;6.70;99.90;;;;;;5034033;28;20421;-69
2023/11/10 05:49:15;;;;;;;0.53;0.40;;;6.70;99.90;;;;;;5033989;28;20514;-69
2023/11/10 05:51:40;;;;;;;1.67;0.40;;;6.70;99.90;;;;;;5033978;28;20854;-69
2023/11/10 05:54:06;;;;;;;0.60;0.50;;;6.70;99.90;;;;;;5033604;28;20289;-69
2023/11/10 05:56:32;;;;;;;2.03;1.20;;;6.70;99.90;;;;;;5033985;28;20255;-69
2023/11/10 05:58:58;;;;;;;0.50;0.43;;;6.60;99.90;;;;;;5033965;28;20198;-69
2023/11/10 06:01:24;;;;;;;0.50;0.47;;;6.70;99.90;;;;;;5033678;28;20192;-69
2023/11/10 06:03:50;;;;;;;1.03;0.50;;;6.70;99.90;;;;;;5033400;28;20973;-69
2023/11/10 06:06:16;;;;;;;0.63;0.63;;;6.70;99.90;;;;;;5033740;28;20829;-69
2023/11/10 06:08:42;;;;;;;3.73;0.50;;;6.70;99.90;;;;;;5033583;28;20417;-69
2023/11/10 06:11:09;;;;;;;0.77;0.77;;;6.70;99.90;;;;;;5033688;28;20185;-69
2023/11/10 06:13:34;;;;;;;0.50;0.50;;;6.70;99.90;;;;;;5033134;28;20645;-69
2023/11/10 06:16:00;;;;;;;0.70;0.70;;;6.70;99.90;;;;;;5033457;28;20474;-69
2023/11/10 06:18:26;;;;;;;0.60;0.50;;;6.70;99.90;;;;;;5033463;28;20162;-69
2023/11/10 06:20:51;;;;;;;0.60;0.50;;;6.70;99.90;;;;;;5033385;28;20201;-69
2023/11/10 06:23:17;;;;;;;1.00;0.60;;;6.80;99.90;;;;;;5033132;28;20190;-69
2023/11/10 06:25:42;;;;;;;1.07;0.60;;;6.80;99.90;;;;;;5033341;28;20183;-69
2023/11/10 06:28:08;;;;;;;0.90;0.63;;;6.80;99.90;;;;;;5033022;28;20550;-69
2023/11/10 06:30:33;;;;;;;0.60;0.50;;;6.80;99.90;;;;;;5033207;28;20170;-69
2023/11/10 06:32:59;;;;;;;1.17;0.73;;;6.90;99.90;;;;;;5032931;28;20381;-69
2023/11/10 06:35:24;;;;;;;2.00;1.50;;;6.90;99.90;;;;;;5032419;28;20687;-69
2023/11/10 06:37:50;;;;;;;0.83;0.77;;;6.90;99.90;;;;;;5033180;28;20660;-69
2023/11/10 06:40:16;;;;;;;0.70;0.60;;;6.90;99.90;;;;;;5032990;28;20236;-69
2023/11/10 06:42:41;;;;;;;0.57;0.57;;;6.90;99.90;;;;;;5032689;28;20293;-69
2023/11/10 06:45:07;;;;;;;1.90;0.80;;;6.90;99.90;;;;;;5032968;28;20643;-69
2023/11/10 06:47:33;;;;;;;0.83;0.70;;;6.90;99.90;;;;;;5032884;28;20261;-69
2023/11/10 06:49:59;;;;;;;0.73;0.70;;;6.90;99.90;;;;;;5032931;28;20504;-69
2023/11/10 06:52:25;;;;;;;1.57;0.80;;;6.90;99.90;;;;;;5033104;28;20428;-69
2023/11/10 06:54:50;;;;;;;2.33;1.13;;;6.90;99.90;;;;;;5032474;28;20470;-69
2023/11/10 06:57:16;;;;;;;0.80;0.80;;;6.90;99.90;;;;;;5032803;28;20209;-69
2023/11/10 06:59:45;;;;;;;0.77;0.60;;;6.90;99.90;;;;;;5032531;28;20181;-69
2023/11/10 07:02:12;;;;;;;1.10;0.63;;;6.90;99.90;;;;;;5032641;28;20504;-69
2023/11/10 07:04:38;;;;;;;0.93;0.63;;;6.90;99.90;;;;;;5032031;28;20502;-69
2023/11/10 07:07:05;;;;;;;0.70;0.70;;;6.90;99.90;;;;;;5032659;28;20457;-69
2023/11/10 07:09:30;;;;;;;0.80;0.80;;;6.80;99.90;;;;;;5032544;28;20491;-69
2023/11/10 07:11:56;;;;;;;1.40;0.97;;;6.70;99.90;;;;;;5032512;28;20974;-69
2023/11/10 07:14:22;;;;;;;1.90;0.87;;;6.70;99.90;;;;;;5031733;28;20475;-69
2023/11/10 07:16:49;;;;;;;1.23;0.87;;;6.70;99.90;;;;;;5032328;28;20206;-69
2023/11/10 07:19:14;;;;;;;1.00;0.70;;;6.60;99.90;;;;;;5032187;28;20421;-69
2023/11/10 07:21:40;;;;;;;1.03;0.80;;;6.70;99.90;;;;;;5031921;28;20977;-69
2023/11/10 07:24:07;;;;;;;1.00;0.90;;;6.70;99.90;;;;;;5031536;28;20186;-70
2023/11/10 07:26:32;;;;;;;2.43;0.73;;;6.70;99.90;;;;;;5031952;28;20416;-69
2023/11/10 07:29:02;;;;;;;0.70;0.70;;;6.70;99.90;;;;;;5032206;28;20417;-69
2023/11/10 07:31:28;;;;;;;2.60;0.80;;;6.70;99.90;;;;;;5028513;28;20177;-69
2023/11/10 07:33:53;;;;;;;2.53;1.10;;;6.70;99.90;;;;;;5034293;28;20448;-69
2023/11/10 07:36:19;;;;;;;2.00;0.80;;;6.70;99.90;;;;;;5031910;28;20228;-70
2023/11/10 07:38:45;;;;;;;2.70;0.87;;;6.80;99.90;;;;;;5031295;28;20726;-70
2023/11/10 07:41:10;;;;;;;2.93;1.07;;;7.00;99.90;;;;;;5030579;28;20683;-70
2023/11/10 07:43:36;;;;;;;1.43;1.10;;;7.50;99.90;;;;;;5031467;28;20464;-70
2023/11/10 07:46:04;;;;;;;1.20;0.73;;;8.00;99.90;;;;;;5031893;28;20166;-70
2023/11/10 07:48:30;;;;;;;1.07;1.00;;;8.40;99.90;;;;;;5031829;28;20216;-70
2023/11/10 07:50:57;;;;;;;0.70;0.70;;;8.50;99.90;;;;;;5031904;28;20448;-70
2023/11/10 07:53:25;;;;;;;0.80;0.70;;;8.40;99.90;;;;;;5031550;28;20495;-70
2023/11/10 07:55:50;;;;;;;0.57;0.57;;;8.30;99.90;;;;;;5031797;28;20428;-70
2023/11/10 07:58:16;;;;;;;2.93;0.90;;;8.00;99.90;;;;;;5031774;28;20420;-69
2023/11/10 08:00:41;;;;;;;0.60;0.60;;;7.90;99.90;;;;;;5031692;28;20198;-70
2023/11/10 08:03:07;;;;;;;1.20;1.10;;;8.00;99.90;;;;;;5031404;28;20686;-69
2023/11/10 08:05:32;;;;;;;0.70;0.70;;;8.10;99.90;;;;;;5031437;28;20189;-69
2023/11/10 08:07:58;;;;;;;0.90;0.63;;;8.40;99.90;;;;;;5031830;28;20162;-69
2023/11/10 08:10:24;;;;;;;2.20;1.00;;;8.70;99.90;;;;;;5031688;28;20170;-69
2023/11/10 08:12:49;;;;;;;0.70;0.63;;;8.70;99.90;;;;;;5030674;28;20218;-69
2023/11/10 08:15:15;;;;;;;0.70;0.50;;;8.40;99.90;;;;;;5031604;28;20170;-69
2023/11/10 08:17:40;;;;;;;0.90;0.60;;;8.30;99.90;;;;;;5031649;28;20181;-69
2023/11/10 08:20:06;;;;;;;0.70;0.70;;;8.30;99.90;;;;;;5031338;28;20661;-70
2023/11/10 08:22:32;;;;;;;0.70;0.53;;;8.20;99.90;;;;;;5031348;28;20543;-69
2023/11/10 08:24:58;;;;;;;6.50;1.10;;;8.20;99.90;;;;;;5031112;28;20429;-70
2023/11/10 08:27:23;;;;;;;0.60;0.50;;;8.30;99.90;;;;;;5031040;28;20174;-70
2023/11/10 08:29:49;;;;;;;0.63;0.57;;;8.60;99.90;;;;;;5031461;28;20167;-69
2023/11/10 08:32:14;;;;;;;0.90;0.60;;;8.80;99.90;;;;;;5030969;28;20520;-70
2023/11/10 08:34:40;;;;;;;1.40;0.80;;;8.90;99.90;;;;;;5030998;28;20197;-70
2023/11/10 08:37:05;;;;;;;0.60;0.60;;;8.90;99.90;;;;;;5031762;28;20194;-70
2023/11/10 08:39:31;;;;;;;0.60;0.50;;;8.90;99.90;;;;;;5031366;28;20174;-70
2023/11/10 08:41:56;;;;;;;2.30;1.00;;;8.90;99.90;;;;;;5031068;28;20647;-71
2023/11/10 08:44:22;;;;;;;0.90;0.70;;;9.00;99.90;;;;;;5031003;28;20194;-70
2023/11/10 08:46:51;;;;;;;0.83;0.50;;;9.20;99.90;;;;;;5031220;28;20175;-70
2023/11/10 08:49:19;;;;;;;0.70;0.70;;;9.50;99.90;;;;;;5030078;28;20236;-70
2023/11/10 08:51:45;;;;;;;0.70;0.70;;;10.10;99.90;;;;;;5031222;28;20470;-71
2023/11/10 08:54:10;;;;;;;2.83;2.30;;;10.50;99.90;;;;;;5030840;28;20445;-70
2023/11/10 08:56:36;;;;;;;4.83;2.27;;;11.60;99.90;;;;;;5031184;28;20175;-71
2023/11/10 08:59:05;;;;;;;0.90;0.80;;;12.40;99.90;;;;;;5033289;28;20479;-70
2023/11/10 09:01:31;;;;;;;1.17;1.03;;;13.20;99.90;;;;;;5034816;28;20829;-70
2023/11/10 09:03:57;;;;;;;0.80;0.70;;;12.60;99.90;;;;;;5034492;28;20490;-70
2023/11/10 09:06:22;;;;;;;0.60;0.57;;;11.80;99.90;;;;;;5034805;28;20416;-70
2023/11/10 09:08:49;;;;;;;1.00;0.80;;;12.00;99.90;;;;;;5034256;28;20210;-70
2023/11/10 09:11:14;;;;;;;0.63;0.53;;;12.60;99.90;;;;;;5034252;28;20184;-70
2023/11/10 09:13:40;;;;;;;0.77;0.77;;;13.40;99.90;;;;;;5033360;28;20968;-70
2023/11/10 09:16:06;;;;;;;0.73;0.73;;;14.20;99.90;;;;;;5034397;28;20180;-71
2023/11/10 09:18:31;;;;;;;1.10;1.03;;;15.10;99.90;;;;;;5034470;28;20174;-70
2023/11/10 09:20:57;;;;;;;0.93;0.80;;;16.00;99.90;;;;;;5033194;28;20237;-70
2023/11/10 09:23:23;;;;;;;1.10;1.00;;;16.50;99.90;;;;;;5034058;28;20217;-71
2023/11/10 09:25:49;;;;;;;1.33;1.07;;;16.10;99.90;;;;;;5034184;28;20966;-70
2023/11/10 09:28:15;;;;;;;1.13;0.77;;;15.70;99.90;;;;;;5034335;28;20163;-70
2023/11/10 09:30:40;;;;;;;1.40;1.27;;;13.90;99.90;;;;;;5034200;28;20937;-70
2023/11/10 09:33:06;;;;;;;2.37;1.50;;;13.40;99.90;;;;;;5033509;28;20206;-70
2023/11/10 09:35:33;;;;;;;1.13;0.90;;;14.60;99.90;;;;;;5034269;28;20714;-71
2023/11/10 09:37:59;;;;;;;1.77;1.40;;;15.60;99.90;;;;;;5034108;28;20166;-71
2023/11/10 09:40:25;;;;;;;2.30;0.90;;;16.10;99.90;;;;;;5034113;28;20506;-70
2023/11/10 09:42:51;;;;;;;5.20;3.17;;;15.60;99.90;;;;;;5033771;28;20196;-70
2023/11/10 09:45:18;;;;;;;3.37;1.87;;;15.30;99.90;;;;;;5034080;28;20185;-70
2023/11/10 09:47:45;;;;;;;3.90;2.47;;;14.50;99.90;;;;;;5031017;28;21204;-70
2023/11/10 09:50:13;;;;;;;1.20;1.10;;;13.50;99.90;;;;;;5028236;28;20432;-70
2023/11/10 09:52:40;;;;;;;1.40;1.30;;;12.40;99.90;;;;;;5033452;28;20512;-70
2023/11/10 09:55:06;;;;;;;0.60;0.60;;;11.60;99.90;;;;;;5033789;28;20425;-70
2023/11/10 09:57:32;;;;;;;1.00;0.80;;;11.10;99.90;;;;;;5033804;28;20416;-70
2023/11/10 09:59:58;;;;;;;0.77;0.70;;;10.70;99.90;;;;;;5033729;28;20424;-69
2023/11/10 10:02:24;;;;;;;1.33;1.00;;;10.40;99.90;;;;;;5033808;28;20170;-69
2023/11/10 10:04:49;;;;;;;0.70;0.70;;;10.10;99.90;;;;;;5033349;28;20194;-72
2023/11/10 10:07:16;;;;;;;1.20;1.00;;;9.90;99.90;;;;;;5033727;28;20413;-69
2023/11/10 10:09:42;;;;;;;0.70;0.60;;;9.90;99.90;;;;;;5032461;28;20181;-69
2023/11/10 10:12:10;;;;;;;0.80;0.70;;;9.80;99.90;;;;;;5033227;28;20421;-70
2023/11/10 10:14:37;;;;;;;0.70;0.70;;;9.60;99.90;;;;;;5032923;28;20543;-70
2023/11/10 10:17:03;;;;;;;1.00;0.90;;;9.60;99.90;;;;;;5033550;28;20428;-70
2023/11/10 10:19:29;;;;;;;1.20;0.90;;;9.60;99.90;;;;;;5033519;28;20428;-69
2023/11/10 10:21:55;;;;;;;0.97;0.80;;;9.40;99.90;;;;;;5033079;28;20455;-69
2023/11/10 10:24:21;;;;;;;0.90;0.80;;;9.30;99.90;;;;;;5033089;28;20445;-69
2023/11/10 10:26:48;;;;;;;1.10;1.00;;;9.20;99.90;;;;;;5033210;28;20448;-69
2023/11/10 10:29:14;;;;;;;2.30;0.83;;;9.20;99.90;;;;;;5032627;28;20425;-70
2023/11/10 10:31:40;;;;;;;2.60;1.57;;;9.20;99.90;;;;;;5032701;28;20436;-72
2023/11/10 10:34:10;;;;;;;2.30;2.10;;;10.60;99.90;;;;;;5032735;28;20471;-72
2023/11/10 10:36:37;;;;;;;1.73;1.10;;;12.50;99.90;;;;;;5032988;28;20174;-72
2023/11/10 10:39:10;;;;;;;1.30;0.90;;;14.20;99.90;;;;;;5033100;28;20416;-70
2023/11/10 10:41:37;;;;;;;1.23;1.00;;;14.30;99.90;;;;;;5030363;28;20457;-70
2023/11/10 10:44:04;;;;;;;3.23;0.90;;;13.40;99.90;;;;;;5032553;28;20449;-71
2023/11/10 10:46:33;;;;;;;1.40;0.73;;;13.90;99.90;;;;;;5032894;28;20421;-71
2023/11/10 10:49:00;;;;;;;0.83;0.83;;;14.60;99.90;;;;;;5032715;28;20447;-70
2023/11/10 10:51:31;;;;;;;1.23;0.90;;;14.40;99.90;;;;;;5032830;28;20416;-70
2023/11/10 10:54:00;;;;;;;1.07;1.07;;;14.40;99.90;;;;;;5032438;28;20447;-71
2023/11/10 10:56:28;;;;;;;1.67;1.30;;;16.70;99.90;;;;;;5032504;28;21150;-71
2023/11/10 10:58:55;;;;;;;1.30;1.20;;;18.40;99.90;;;;;;5032666;28;20425;-69
2023/11/10 11:01:21;;;;;;;0.70;0.70;;;20.20;93.40;;;;;;5032409;28;20799;-70
2023/11/10 11:04:11;;;;;;;1.03;0.93;;;21.10;85.00;;;;;;5032187;28;21000;-70
2023/11/10 11:06:48;;;;;;;1.00;0.90;;;21.60;79.30;;;;;;5033114;28;20425;-69
2023/11/10 11:09:19;;;;;;;0.97;0.87;;;20.90;76.50;;;;;;5032496;28;20471;-69
2023/11/10 11:12:08;;;;;;;1.63;1.00;;;21.80;72.90;;;;;;5031938;28;20432;-69
2023/11/10 11:14:44;;;;;;;1.67;0.60;;;22.40;68.40;;;;;;5031080;28;20449;-68
2023/11/10 11:17:47;;;;;;;0.90;0.90;;;21.20;65.20;;;;;;5032163;28;20467;-66
2023/11/10 11:20:14;;;;;;;1.17;0.90;;;19.60;69.90;;;;;;5031242;28;20535;-68
2023/11/10 11:22:40;;;;;;;0.87;0.83;;;19.50;70.90;;;;;;5031264;28;20436;-68
2023/11/10 11:25:10;;;;;;;0.87;0.80;;;20.60;68.60;;;;;;5032061;28;21143;-68
2023/11/10 11:27:37;;;;;;;1.27;0.70;;;19.70;67.10;;;;;;5031538;28;20170;-68
2023/11/10 11:30:11;;;;;;;1.10;0.77;;;19.10;68.50;;;;;;5030994;28;20420;-70
2023/11/10 11:32:43;;;;;;;0.70;0.70;;;18.70;68.20;;;;;;5031426;28;20433;-69
2023/11/10 11:35:16;;;;;;;2.53;1.40;;;17.30;80.20;;;;;;5027485;28;20432;-69
2023/11/10 11:37:43;;;;;;;2.27;1.10;;;17.40;84.60;;;;;;5032087;28;20424;-69
2023/11/10 11:40:10;;;;;;;1.47;1.07;;;16.30;88.50;;;;;;5032722;28;20417;-69
2023/11/10 11:42:38;;;;;;;2.03;1.83;;;15.70;92.10;;;;;;5027551;28;20922;-69
2023/11/10 11:45:15;;;;;;;1.10;0.80;;;16.50;90.60;;;;;;5029341;28;20466;-69
2023/11/10 11:47:42;;;;;;;1.10;0.90;;;17.60;83.10;;;;;;5031358;28;20424;-70
2023/11/10 11:50:11;;;;;;;3.00;2.30;;;16.50;85.30;;;;;;5031796;28;20425;-69
2023/11/10 11:52:38;;;;;;;1.20;1.10;;;15.80;91.50;;;;;;5030641;28;20512;-68
2023/11/10 11:55:04;;;;;;;1.07;0.97;;;15.40;92.80;;;;;;5031836;28;20479;-69
2023/11/10 11:57:34;;;;;;;1.20;1.10;;;15.20;93.60;;;;;;5031929;28;20787;-69
2023/11/10 12:00:00;;;;;;;1.83;0.90;;;15.80;92.70;;;;;;5031884;28;20452;-69
2023/11/10 12:02:26;;;;;;;0.80;0.80;;;15.90;91.00;;;;;;5031840;28;20997;-69
2023/11/10 12:04:51;;;;;;;1.00;0.80;;;15.10;92.90;;;;;;5031547;28;20475;-69
2023/11/10 12:07:18;;;;;;;1.77;0.80;;;14.00;96.80;;;;;;5031817;28;20251;-69
2023/11/10 12:09:43;;;;;;;1.17;0.70;;;13.70;99.90;;;;;;5031772;28;20177;-69
2023/11/10 12:12:10;;;;;;;1.27;0.73;;;13.80;99.90;;;;;;5031779;28;20424;-69
2023/11/10 12:14:36;;;;;;;1.10;0.70;;;13.20;99.90;;;;;;5031374;28;20280;-69
2023/11/10 12:17:01;;;;;;;1.70;0.87;;;12.40;99.90;;;;;;5031811;28;20436;-69
2023/11/10 12:19:27;;;;;;;2.20;0.80;;;12.70;99.90;;;;;;5031720;28;20433;-69
2023/11/10 12:21:53;;;;;;;1.30;1.20;;;13.70;99.90;;;;;;5031491;28;20190;-69
2023/11/10 12:24:25;;;;;;;1.00;0.80;;;16.30;99.90;;;;;;5031023;28;20471;-69
2023/11/10 12:26:51;;;;;;;1.93;1.00;;;18.00;93.10;;;;;;5031712;28;20225;-69
2023/11/10 12:29:26;;;;;;;2.67;0.80;;;19.40;84.70;;;;;;5031603;28;20496;-70
2023/11/10 12:31:52;;;;;;;1.10;1.00;;;20.30;79.00;;;;;;5031601;28;20202;-68
2023/11/10 12:34:17;;;;;;;1.17;0.97;;;21.60;70.80;;;;;;5033918;28;20934;-68
2023/11/10 12:36:46;;;;;;;2.37;1.20;;;21.70;68.50;;;;;;5035372;28;20483;-68
2023/11/10 12:39:18;;;;;;;1.47;1.00;;;21.70;66.60;;;;;;5035266;28;20170;-68
2023/11/10 12:41:47;;;;;;;0.83;0.83;;;22.40;63.20;;;;;;5034671;28;20511;-68
2023/11/10 12:44:16;;;;;;;3.30;0.90;;;23.40;63.70;;;;;;5034901;28;20810;-68
2023/11/10 12:47:00;;;;;;;1.53;0.90;;;21.90;60.10;;;;;;5035200;28;20423;-67
2023/11/10 12:49:29;;;;;;;0.77;0.70;;;18.90;59.30;;;;;;5030142;28;20431;-69
2023/11/10 12:51:58;;;;;;;1.23;1.13;;;16.00;75.00;;;;;;5035077;28;20421;-69